createdAt,value
2017-11-06T00:00:24.904Z,7.65
2017-11-06T00:00:59.611Z,7.75
2017-11-06T00:01:34.410Z,8.20
2017-11-06T00:02:09.115Z,7.80
2017-11-06T00:02:43.817Z,7.97
2017-11-06T00:03:18.539Z,7.93
2017-11-06T00:03:53.282Z,7.45
2017-11-06T00:04:28.380Z,7.75
2017-11-06T00:05:03.096Z,7.28
2017-11-06T00:05:38.600Z,7.05
2017-11-06T00:06:13.316Z,7.37
2017-11-06T00:06:48.044Z,6.62
2017-11-06T00:07:22.778Z,7.22
2017-11-06T00:07:57.516Z,6.57
2017-11-06T00:08:32.224Z,6.80
2017-11-06T00:09:06.940Z,6.70
2017-11-06T00:09:41.929Z,7.30
2017-11-06T00:10:16.671Z,7.90
2017-11-06T00:10:51.407Z,7.15
2017-11-06T00:11:26.111Z,6.50
2017-11-06T00:12:00.818Z,6.80
2017-11-06T00:12:35.536Z,7.07
2017-11-06T00:13:10.245Z,6.62
2017-11-06T00:13:44.963Z,6.45
2017-11-06T00:14:19.689Z,6.15
2017-11-06T00:14:54.530Z,6.57
2017-11-06T00:15:29.239Z,6.25
2017-11-06T00:16:03.954Z,5.82
2017-11-06T00:16:38.671Z,6.25
2017-11-06T00:17:13.383Z,5.60
2017-11-06T00:17:48.130Z,5.78
2017-11-06T00:18:22.844Z,5.82
2017-11-06T00:18:57.552Z,5.50
2017-11-06T00:19:32.275Z,5.72
2017-11-06T00:20:07.907Z,5.25
2017-11-06T00:20:42.618Z,5.70
2017-11-06T00:21:17.391Z,5.10
2017-11-06T00:21:52.118Z,5.07
2017-11-06T00:22:26.829Z,5.78
2017-11-06T00:23:01.541Z,4.70
2017-11-06T00:23:36.326Z,4.85
2017-11-06T00:24:11.353Z,4.68
2017-11-06T00:24:46.198Z,4.30
2017-11-06T00:25:21.247Z,4.87
2017-11-06T00:25:56.655Z,4.20
2017-11-06T00:26:32.085Z,4.05
2017-11-06T00:27:06.795Z,4.45
2017-11-06T00:27:41.513Z,4.22
2017-11-06T00:28:16.219Z,4.55
2017-11-06T00:28:51.553Z,4.80
2017-11-06T00:29:26.279Z,3.50
2017-11-06T00:30:03.941Z,4.03
2017-11-06T00:30:38.792Z,3.95
2017-11-06T00:31:14.225Z,4.62
2017-11-06T00:31:48.960Z,4.20
2017-11-06T00:32:23.726Z,4.10
2017-11-06T00:32:58.436Z,4.18
2017-11-06T00:33:34.033Z,4.03
2017-11-06T00:34:08.760Z,3.87
2017-11-06T00:34:43.528Z,4.75
2017-11-06T00:35:18.218Z,4.40
2017-11-06T00:35:52.944Z,4.05
2017-11-06T00:36:27.637Z,4.18
2017-11-06T00:37:02.365Z,3.92
2017-11-06T00:37:37.167Z,4.07
2017-11-06T00:38:11.692Z,4.10
2017-11-06T00:38:46.479Z,3.55
2017-11-06T00:39:21.197Z,4.05
2017-11-06T00:39:56.161Z,4.28
2017-11-06T00:40:30.894Z,3.80
2017-11-06T00:41:05.617Z,4.32
2017-11-06T00:41:40.336Z,3.40
2017-11-06T00:42:15.045Z,3.58
2017-11-06T00:42:49.760Z,3.47
2017-11-06T00:43:24.467Z,3.85
2017-11-06T00:43:59.192Z,3.33
2017-11-06T00:44:33.899Z,3.55
2017-11-06T00:45:08.626Z,3.20
2017-11-06T00:45:43.327Z,2.85
2017-11-06T00:46:18.081Z,4.10
2017-11-06T00:46:52.840Z,3.75
2017-11-06T00:47:27.566Z,3.45
2017-11-06T00:48:02.286Z,3.47
2017-11-06T00:48:37.079Z,3.67
2017-11-06T00:49:11.785Z,3.00
2017-11-06T00:49:46.499Z,3.25
2017-11-06T00:50:21.213Z,3.20
2017-11-06T00:50:55.933Z,3.30
2017-11-06T00:51:30.984Z,2.90
2017-11-06T00:52:05.724Z,3.20
2017-11-06T00:52:40.479Z,2.97
2017-11-06T00:53:15.189Z,3.97
2017-11-06T00:53:49.917Z,2.80
2017-11-06T00:54:24.634Z,3.20
2017-11-06T00:54:59.393Z,2.70
2017-11-06T00:55:34.122Z,3.03
2017-11-06T00:56:08.834Z,3.42
2017-11-06T00:56:43.883Z,2.85
2017-11-06T00:57:18.588Z,2.87
2017-11-06T00:57:53.335Z,2.40
2017-11-06T00:58:28.207Z,3.35
2017-11-06T00:59:02.915Z,2.95
2017-11-06T00:59:37.807Z,3.50
2017-11-06T01:00:12.169Z,3.10
2017-11-06T01:00:46.901Z,3.08
2017-11-06T01:01:21.603Z,2.60
2017-11-06T01:01:56.541Z,2.87
2017-11-06T01:02:31.318Z,3.08
2017-11-06T01:03:06.028Z,2.80
2017-11-06T01:03:40.744Z,3.22
2017-11-06T01:04:15.456Z,2.60
2017-11-06T01:04:50.176Z,2.92
2017-11-06T01:05:25.128Z,2.60
2017-11-06T01:05:59.857Z,3.08
2017-11-06T01:06:34.563Z,2.67
2017-11-06T01:07:09.656Z,2.87
2017-11-06T01:07:44.398Z,2.97
2017-11-06T01:08:19.113Z,2.37
2017-11-06T01:08:53.846Z,2.90
2017-11-06T01:09:28.551Z,2.67
2017-11-06T01:10:02.711Z,2.78
2017-11-06T01:10:37.502Z,2.50
2017-11-06T01:11:12.213Z,2.03
2017-11-06T01:11:46.926Z,2.92
2017-11-06T01:12:21.670Z,2.42
2017-11-06T01:12:56.378Z,1.90
2017-11-06T01:13:31.178Z,2.90
2017-11-06T01:14:05.907Z,2.80
2017-11-06T01:14:40.620Z,2.53
2017-11-06T01:15:15.329Z,2.40
2017-11-06T01:15:50.034Z,2.35
2017-11-06T01:16:24.729Z,2.72
2017-11-06T01:16:59.441Z,2.62
2017-11-06T01:17:34.436Z,2.33
2017-11-06T01:18:09.175Z,2.50
2017-11-06T01:18:43.952Z,2.90
2017-11-06T01:19:18.673Z,2.55
2017-11-06T01:19:53.511Z,2.75
2017-11-06T01:20:28.473Z,2.70
2017-11-06T01:21:03.193Z,2.70
2017-11-06T01:21:37.986Z,3.15
2017-11-06T01:22:12.697Z,2.60
2017-11-06T01:22:47.431Z,2.67
2017-11-06T01:23:22.205Z,2.90
2017-11-06T01:23:56.917Z,2.10
2017-11-06T01:24:31.627Z,2.20
2017-11-06T01:25:06.417Z,2.35
2017-11-06T01:25:41.146Z,2.50
2017-11-06T01:26:15.890Z,2.50
2017-11-06T01:26:50.603Z,2.20
2017-11-06T01:27:25.302Z,2.15
2017-11-06T01:28:00.274Z,2.22
2017-11-06T01:28:35.027Z,2.17
2017-11-06T01:29:09.976Z,1.98
2017-11-06T01:29:44.684Z,2.20
2017-11-06T01:30:19.040Z,2.47
2017-11-06T01:30:53.777Z,2.30
2017-11-06T01:31:28.514Z,2.20
2017-11-06T01:32:03.321Z,2.22
2017-11-06T01:32:38.064Z,2.40
2017-11-06T01:33:14.583Z,2.62
2017-11-06T01:33:50.236Z,2.22
2017-11-06T02:13:51.679Z,2.83
2017-11-06T02:14:26.403Z,2.50
2017-11-06T02:15:01.117Z,2.75
2017-11-06T02:15:35.857Z,2.78
2017-11-06T02:16:10.555Z,3.45
2017-11-06T02:16:45.251Z,3.05
2017-11-06T02:17:19.999Z,2.40
2017-11-06T02:17:54.735Z,2.72
2017-11-06T02:18:29.440Z,2.60
2017-11-06T02:19:04.096Z,2.97
2017-11-06T02:19:38.457Z,2.33
2017-11-06T02:20:12.817Z,2.65
2017-11-06T02:20:47.503Z,2.55
2017-11-06T02:21:21.896Z,2.60
2017-11-06T02:21:56.275Z,2.47
2017-11-06T02:22:30.640Z,2.40
2017-11-06T02:23:05.035Z,2.50
2017-11-06T02:23:39.384Z,2.72
2017-11-06T02:24:13.735Z,2.40
2017-11-06T02:24:48.088Z,2.58
2017-11-06T02:25:22.458Z,2.33
2017-11-06T02:25:57.136Z,2.72
2017-11-06T02:26:31.862Z,2.70
2017-11-06T02:27:06.232Z,2.42
2017-11-06T02:27:40.598Z,2.55
2017-11-06T02:28:14.952Z,2.40
2017-11-06T02:28:49.340Z,2.85
2017-11-06T02:29:23.702Z,2.60
2017-11-06T02:29:58.090Z,2.20
2017-11-06T02:30:32.442Z,2.28
2017-11-06T02:31:07.144Z,2.22
2017-11-06T02:31:41.495Z,2.75
2017-11-06T02:32:16.017Z,2.60
2017-11-06T02:32:50.560Z,2.40
2017-11-06T02:33:25.279Z,2.40
2017-11-06T02:34:00.037Z,2.45
2017-11-06T02:34:34.406Z,2.60
2017-11-06T02:35:08.908Z,2.50
2017-11-06T02:35:43.620Z,2.60
2017-11-06T02:36:18.643Z,2.17
2017-11-06T02:36:53.014Z,2.70
2017-11-06T02:37:27.711Z,2.65
2017-11-06T02:38:02.428Z,2.50
2017-11-06T02:38:36.818Z,3.17
2017-11-06T02:39:11.528Z,2.58
2017-11-06T02:39:45.948Z,2.60
2017-11-06T02:40:20.685Z,2.90
2017-11-06T02:40:55.397Z,2.60
2017-11-06T02:41:30.496Z,3.00
2017-11-06T02:42:05.212Z,2.90
2017-11-06T02:42:39.922Z,2.62
2017-11-06T02:43:14.627Z,2.92
2017-11-06T02:43:49.406Z,3.65
2017-11-06T02:44:24.118Z,2.67
2017-11-06T02:44:58.829Z,3.20
2017-11-06T02:45:33.531Z,2.72
2017-11-06T02:46:08.239Z,2.97
2017-11-06T02:46:42.977Z,2.42
2017-11-06T02:47:17.496Z,3.17
2017-11-06T02:47:52.200Z,2.70
2017-11-06T02:48:26.913Z,2.90
2017-11-06T02:49:01.629Z,2.65
2017-11-06T02:49:36.355Z,2.60
2017-11-06T02:50:11.061Z,2.80
2017-11-06T02:50:45.765Z,2.45
2017-11-06T02:51:20.482Z,2.45
2017-11-06T02:51:55.280Z,2.70
2017-11-06T02:52:29.989Z,2.65
2017-11-06T02:53:04.825Z,2.40
2017-11-06T02:53:39.541Z,2.90
2017-11-06T02:54:14.300Z,2.47
2017-11-06T02:54:48.658Z,2.70
2017-11-06T02:55:23.356Z,2.37
2017-11-06T02:55:58.085Z,2.45
2017-11-06T02:56:32.907Z,2.80
2017-11-06T02:57:07.441Z,2.78
2017-11-06T02:57:42.943Z,2.37
2017-11-06T02:58:17.639Z,2.90
2017-11-06T02:58:52.336Z,3.03
2017-11-06T02:59:27.049Z,2.80
2017-11-06T03:00:01.771Z,2.85
2017-11-06T03:00:36.482Z,2.78
2017-11-06T03:01:11.179Z,2.33
2017-11-06T03:01:45.895Z,2.80
2017-11-06T03:02:20.881Z,2.92
2017-11-06T03:02:56.209Z,2.67
2017-11-06T03:03:30.902Z,2.50
2017-11-06T03:04:05.598Z,2.78
2017-11-06T03:04:40.300Z,2.70
2017-11-06T03:05:14.998Z,2.87
2017-11-06T03:05:49.703Z,2.67
2017-11-06T03:06:24.426Z,2.92
2017-11-06T03:06:59.159Z,2.85
2017-11-06T03:07:33.896Z,2.30
2017-11-06T03:08:08.611Z,3.65
2017-11-06T03:08:43.309Z,2.22
2017-11-06T03:09:18.058Z,2.50
2017-11-06T03:09:52.764Z,2.20
2017-11-06T03:10:27.454Z,3.10
2017-11-06T03:11:02.183Z,2.15
2017-11-06T03:11:37.015Z,2.45
2017-11-06T03:12:11.721Z,2.65
2017-11-06T03:12:46.762Z,2.72
2017-11-06T03:13:21.551Z,2.72
2017-11-06T03:13:56.259Z,2.28
2017-11-06T03:14:30.962Z,2.60
2017-11-06T03:15:06.316Z,2.17
2017-11-06T03:15:41.024Z,1.98
2017-11-06T03:16:15.728Z,2.22
2017-11-06T03:16:50.453Z,2.25
2017-11-06T03:17:25.262Z,2.35
2017-11-06T03:18:00.384Z,2.45
2017-11-06T03:18:35.110Z,2.30
2017-11-06T03:19:09.821Z,2.87
2017-11-06T03:19:44.536Z,1.85
2017-11-06T03:20:18.932Z,2.40
2017-11-06T03:20:53.286Z,2.17
2017-11-06T03:21:27.643Z,2.40
2017-11-06T03:22:02.357Z,2.30
2017-11-06T03:22:37.073Z,2.17
2017-11-06T03:23:12.140Z,2.72
2017-11-06T03:23:46.857Z,1.90
2017-11-06T03:24:21.216Z,2.00
2017-11-06T03:24:55.937Z,1.92
2017-11-06T03:25:30.307Z,2.50
2017-11-06T03:26:04.685Z,2.25
2017-11-06T03:26:39.053Z,2.10
2017-11-06T03:27:13.762Z,2.05
2017-11-06T03:27:48.472Z,2.40
2017-11-06T03:28:23.520Z,2.33
2017-11-06T03:28:58.239Z,1.90
2017-11-06T03:29:32.952Z,2.40
2017-11-06T03:30:07.659Z,2.12
2017-11-06T03:30:42.352Z,1.90
2017-11-06T03:31:17.062Z,2.10
2017-11-06T03:31:51.779Z,2.25
2017-11-06T03:32:26.515Z,2.40
2017-11-06T03:33:01.306Z,2.35
2017-11-06T03:33:36.032Z,2.22
2017-11-06T03:34:10.760Z,2.30
2017-11-06T03:34:45.468Z,1.92
2017-11-06T03:35:20.163Z,2.20
2017-11-06T03:35:54.876Z,2.20
2017-11-06T03:36:29.593Z,2.45
2017-11-06T03:37:04.316Z,2.30
2017-11-06T03:37:39.071Z,2.17
2017-11-06T03:38:13.796Z,2.83
2017-11-06T03:38:49.163Z,2.83
2017-11-06T03:39:23.870Z,2.30
2017-11-06T03:39:58.616Z,2.70
2017-11-06T03:40:33.408Z,3.37
2017-11-06T03:41:08.099Z,3.30
2017-11-06T03:41:42.798Z,3.40
2017-11-06T03:42:17.497Z,3.47
2017-11-06T03:42:52.256Z,3.67
2017-11-06T03:43:26.975Z,3.58
2017-11-06T03:44:01.704Z,3.85
2017-11-06T03:44:36.444Z,3.83
2017-11-06T03:45:11.140Z,4.25
2017-11-06T03:45:45.872Z,3.67
2017-11-06T03:46:20.617Z,4.65
2017-11-06T03:46:55.368Z,4.75
2017-11-06T03:47:30.073Z,4.45
2017-11-06T03:48:04.941Z,5.28
2017-11-06T03:48:39.704Z,5.82
2017-11-06T03:49:14.756Z,6.10
2017-11-06T03:49:49.472Z,6.50
2017-11-06T03:50:24.231Z,5.70
2017-11-06T03:50:58.977Z,6.37
2017-11-06T03:51:33.687Z,6.18
2017-11-06T03:52:08.404Z,6.90
2017-11-06T03:52:43.120Z,6.87
2017-11-06T03:53:17.830Z,7.43
2017-11-06T03:53:52.546Z,7.40
2017-11-06T03:54:27.596Z,7.40
2017-11-06T03:55:02.303Z,7.25
2017-11-06T03:55:37.024Z,6.50
2017-11-06T03:56:11.732Z,7.90
2017-11-06T03:56:46.443Z,7.15
2017-11-06T03:57:21.163Z,7.62
2017-11-06T03:57:55.883Z,6.68
2017-11-06T03:58:30.625Z,6.95
2017-11-06T03:59:05.334Z,7.35
2017-11-06T03:59:40.422Z,7.97
2017-11-06T04:00:15.132Z,6.95
2017-11-06T04:00:49.843Z,7.18
2017-11-06T04:01:24.558Z,8.35
2017-11-06T04:01:59.371Z,7.78
2017-11-06T04:02:34.072Z,8.10
2017-11-06T04:03:08.787Z,7.82
2017-11-06T04:03:43.528Z,8.40
2017-11-06T04:04:18.248Z,7.87
2017-11-06T04:04:52.985Z,7.00
2017-11-06T04:05:27.704Z,8.00
2017-11-06T04:06:02.419Z,7.95
2017-11-06T04:06:37.132Z,7.60
2017-11-06T04:07:11.924Z,7.57
2017-11-06T04:07:46.658Z,8.05
2017-11-06T04:08:21.445Z,8.00
2017-11-06T04:08:56.193Z,6.50
2017-11-06T04:09:31.228Z,7.53
2017-11-06T04:10:06.283Z,7.30
2017-11-06T04:10:40.987Z,7.05
2017-11-06T04:11:15.696Z,7.40
2017-11-06T04:11:50.428Z,7.07
2017-11-06T04:12:24.915Z,7.55
2017-11-06T04:12:59.633Z,7.55
2017-11-06T04:13:34.365Z,7.18
2017-11-06T04:14:09.120Z,7.70
2017-11-06T04:14:43.839Z,7.28
2017-11-06T04:15:18.996Z,7.30
2017-11-06T04:15:53.711Z,6.45
2017-11-06T04:16:28.801Z,6.65
2017-11-06T04:17:03.525Z,7.20
2017-11-06T04:17:38.230Z,6.25
2017-11-06T04:18:12.953Z,6.82
2017-11-06T04:18:47.657Z,6.65
2017-11-06T04:19:23.247Z,6.32
2017-11-06T04:19:58.010Z,5.75
2017-11-06T04:20:32.721Z,6.03
2017-11-06T04:21:07.448Z,6.47
2017-11-06T04:21:42.249Z,6.18
2017-11-06T04:22:17.577Z,6.80
2017-11-06T04:22:52.275Z,6.72
2017-11-06T04:23:26.995Z,6.65
2017-11-06T04:24:01.858Z,6.75
2017-11-06T04:24:36.571Z,5.80
2017-11-06T04:25:11.344Z,7.05
2017-11-06T04:25:46.436Z,6.00
2017-11-06T04:26:21.174Z,6.03
2017-11-06T04:26:55.955Z,6.80
2017-11-06T04:27:30.651Z,6.45
2017-11-06T04:28:05.474Z,7.07
2017-11-06T04:28:40.186Z,6.53
2017-11-06T04:29:14.553Z,6.25
2017-11-06T04:29:49.271Z,6.05
2017-11-06T04:30:23.638Z,6.50
2017-11-06T04:30:58.668Z,5.95
2017-11-06T04:31:33.404Z,7.28
2017-11-06T04:32:09.078Z,5.28
2017-11-06T04:32:43.898Z,5.55
2017-11-06T04:33:18.636Z,6.30
2017-11-06T04:33:53.024Z,5.78
2017-11-06T04:34:27.747Z,5.20
2017-11-06T04:35:02.244Z,5.65
2017-11-06T04:35:36.616Z,6.15
2017-11-06T04:36:11.293Z,6.05
2017-11-06T04:36:45.695Z,5.82
2017-11-06T04:37:20.132Z,5.75
2017-11-06T04:37:54.501Z,5.50
2017-11-06T04:38:29.214Z,6.15
2017-11-06T04:39:03.393Z,5.57
2017-11-06T04:39:38.134Z,5.68
2017-11-06T04:40:12.852Z,5.62
2017-11-06T04:40:47.577Z,5.50
2017-11-06T04:41:22.597Z,5.03
2017-11-06T04:41:56.968Z,5.75
2017-11-06T04:42:31.687Z,4.82
2017-11-06T04:43:06.408Z,5.75
2017-11-06T04:43:41.110Z,5.50
2017-11-06T04:44:15.835Z,5.35
2017-11-06T04:44:50.553Z,4.78
2017-11-06T04:45:24.947Z,5.15
2017-11-06T04:45:59.672Z,6.10
2017-11-06T04:46:34.719Z,5.28
2017-11-06T04:47:09.447Z,5.70
2017-11-06T04:47:44.157Z,4.78
2017-11-06T04:48:18.891Z,4.72
2017-11-06T04:48:53.605Z,5.25
2017-11-06T04:49:28.330Z,5.60
2017-11-06T04:50:03.044Z,4.20
2017-11-06T04:50:37.757Z,5.20
2017-11-06T04:51:12.472Z,4.87
2017-11-06T04:51:47.451Z,5.03
2017-11-06T04:52:22.369Z,4.68
2017-11-06T04:52:57.075Z,4.40
2017-11-06T04:53:32.000Z,4.60
2017-11-06T04:54:06.707Z,4.45
2017-11-06T04:54:41.435Z,5.10
2017-11-06T04:55:16.141Z,4.62
2017-11-06T04:55:50.839Z,5.12
2017-11-06T04:56:25.644Z,4.32
2017-11-06T04:57:00.688Z,4.30
2017-11-06T04:57:35.415Z,4.72
2017-11-06T04:58:10.136Z,4.10
2017-11-06T04:58:44.852Z,5.60
2017-11-06T04:59:19.699Z,4.47
2017-11-06T04:59:54.398Z,4.47
2017-11-06T05:00:29.092Z,4.60
2017-11-06T05:01:03.533Z,4.37
2017-11-06T05:01:38.232Z,3.67
2017-11-06T05:02:12.953Z,4.93
2017-11-06T05:02:47.656Z,4.25
2017-11-06T05:03:22.401Z,4.20
2017-11-06T05:03:57.105Z,4.30
2017-11-06T05:04:31.808Z,4.50
2017-11-06T05:05:06.534Z,4.37
2017-11-06T05:05:41.255Z,4.45
2017-11-06T05:06:15.969Z,4.85
2017-11-06T05:06:50.679Z,4.12
2017-11-06T05:07:25.443Z,4.05
2017-11-06T05:08:00.146Z,3.87
2017-11-06T05:08:34.864Z,4.80
2017-11-06T05:09:10.803Z,4.53
2017-11-06T05:09:45.512Z,4.53
2017-11-06T05:10:20.218Z,4.57
2017-11-06T05:10:54.926Z,4.28
2017-11-06T05:11:29.657Z,4.50
2017-11-06T05:12:04.384Z,3.62
2017-11-06T05:12:39.466Z,3.72
2017-11-06T05:13:14.178Z,5.25
2017-11-06T05:13:48.876Z,4.15
2017-11-06T05:14:23.591Z,4.00
2017-11-06T05:14:58.155Z,4.53
2017-11-06T05:15:32.507Z,4.32
2017-11-06T05:16:07.228Z,4.07
2017-11-06T05:16:41.943Z,4.65
2017-11-06T05:17:16.668Z,5.07
2017-11-06T05:17:51.699Z,4.05
2017-11-06T05:18:26.408Z,4.85
2017-11-06T05:19:01.120Z,4.20
2017-11-06T05:19:35.833Z,4.18
2017-11-06T05:20:10.545Z,5.00
2017-11-06T05:20:45.336Z,4.50
2017-11-06T05:22:01.449Z,4.12
2017-11-06T05:22:36.158Z,4.32
2017-11-06T05:23:11.187Z,4.90
2017-11-06T05:23:46.072Z,4.35
2017-11-06T05:24:20.780Z,4.68
2017-11-06T05:24:55.496Z,4.12
2017-11-06T05:25:30.207Z,4.32
2017-11-06T05:26:04.922Z,4.60
2017-11-06T05:26:39.657Z,4.05
2017-11-06T05:27:14.370Z,4.47
2017-11-06T05:27:49.084Z,4.15
2017-11-06T05:28:23.812Z,4.12
2017-11-06T05:28:58.527Z,3.85
2017-11-06T05:29:33.234Z,4.00
2017-11-06T05:30:07.941Z,4.50
2017-11-06T05:30:42.700Z,4.40
2017-11-06T05:31:17.242Z,4.87
2017-11-06T05:31:51.960Z,4.82
2017-11-06T05:32:26.668Z,3.95
2017-11-06T05:33:01.387Z,4.40
2017-11-06T05:33:36.125Z,4.55
2017-11-06T05:34:10.848Z,4.28
2017-11-06T05:34:45.565Z,4.03
2017-11-06T05:35:20.276Z,4.10
2017-11-06T05:35:54.806Z,4.70
2017-11-06T05:36:29.916Z,4.65
2017-11-06T05:37:04.449Z,4.55
2017-11-06T05:37:39.180Z,3.95
2017-11-06T05:38:13.913Z,4.07
2017-11-06T05:38:48.454Z,4.25
2017-11-06T05:39:23.177Z,4.30
2017-11-06T05:39:57.882Z,4.50
2017-11-06T05:40:32.696Z,4.75
2017-11-06T05:41:07.209Z,4.40
2017-11-06T05:41:41.735Z,3.72
2017-11-06T05:42:16.264Z,4.28
2017-11-06T05:42:51.041Z,4.18
2017-11-06T05:43:25.752Z,4.75
2017-11-06T05:44:00.596Z,4.25
2017-11-06T05:44:35.115Z,4.53
2017-11-06T05:45:09.849Z,3.80
2017-11-06T05:45:44.577Z,4.60
2017-11-06T05:46:19.297Z,4.32
2017-11-06T05:46:54.002Z,5.18
2017-11-06T05:47:28.715Z,4.85
2017-11-06T05:48:03.223Z,4.35
2017-11-06T05:48:38.251Z,4.72
2017-11-06T05:49:12.959Z,4.80
2017-11-06T05:49:47.671Z,4.62
2017-11-06T05:50:22.381Z,4.50
2017-11-06T05:50:57.142Z,4.47
2017-11-06T05:51:31.855Z,4.62
2017-11-06T05:52:06.559Z,3.87
2017-11-06T05:52:41.300Z,3.90
2017-11-06T05:53:15.996Z,4.43
2017-11-06T05:53:50.701Z,4.80
2017-11-06T05:54:25.755Z,4.55
2017-11-06T05:55:00.536Z,3.55
2017-11-06T05:55:34.911Z,3.95
2017-11-06T05:56:09.632Z,4.40
2017-11-06T05:56:44.339Z,4.28
2017-11-06T05:57:19.052Z,4.45
2017-11-06T05:57:53.784Z,4.82
2017-11-06T05:58:28.498Z,4.00
2017-11-06T05:59:03.194Z,4.28
2017-11-06T05:59:37.921Z,3.45
2017-11-06T06:00:12.286Z,4.50
2017-11-06T06:00:46.991Z,4.25
2017-11-06T06:01:21.691Z,5.50
2017-11-06T06:01:56.395Z,4.03
2017-11-06T06:02:31.139Z,4.22
2017-11-06T06:03:05.847Z,3.90
2017-11-06T06:03:40.559Z,4.03
2017-11-06T06:04:15.275Z,4.70
2017-11-06T06:04:50.016Z,4.18
2017-11-06T06:05:24.715Z,4.45
2017-11-06T06:05:59.475Z,4.03
2017-11-06T06:06:34.225Z,4.18
2017-11-06T06:07:08.944Z,4.40
2017-11-06T06:07:43.660Z,4.28
2017-11-06T06:08:18.380Z,5.10
2017-11-06T06:08:53.100Z,4.70
2017-11-06T06:09:27.799Z,4.32
2017-11-06T06:10:02.915Z,3.60
2017-11-06T06:10:37.628Z,3.70
2017-11-06T06:11:12.342Z,4.50
2017-11-06T06:11:47.031Z,3.97
2017-11-06T06:12:21.717Z,4.12
2017-11-06T06:12:56.428Z,4.90
2017-11-06T06:13:31.120Z,4.25
2017-11-06T06:14:05.821Z,4.15
2017-11-06T06:14:40.535Z,4.10
2017-11-06T06:15:15.563Z,4.25
2017-11-06T06:15:50.511Z,4.18
2017-11-06T06:16:25.231Z,4.15
2017-11-06T06:16:59.971Z,3.90
2017-11-06T06:17:34.677Z,4.28
2017-11-06T06:18:09.394Z,3.80
2017-11-06T06:18:44.144Z,4.68
2017-11-06T06:19:18.852Z,3.75
2017-11-06T06:19:53.572Z,4.30
2017-11-06T06:20:28.337Z,4.18
2017-11-06T06:21:03.051Z,4.70
2017-11-06T06:21:37.754Z,4.75
2017-11-06T06:22:12.472Z,5.20
2017-11-06T06:22:47.201Z,4.35
2017-11-06T06:23:21.916Z,4.47
2017-11-06T06:23:56.640Z,4.53
2017-11-06T06:24:31.507Z,4.30
2017-11-06T06:25:06.243Z,4.40
2017-11-06T06:25:41.324Z,3.87
2017-11-06T06:26:16.061Z,3.78
2017-11-06T06:26:50.784Z,4.25
2017-11-06T06:27:25.502Z,4.62
2017-11-06T06:28:00.217Z,3.75
2017-11-06T06:28:34.939Z,3.90
2017-11-06T06:29:09.652Z,4.15
2017-11-06T06:29:44.358Z,4.22
2017-11-06T06:30:19.069Z,3.92
2017-11-06T06:30:54.155Z,4.80
2017-11-06T06:31:28.865Z,4.60
2017-11-06T06:32:03.581Z,4.40
2017-11-06T06:32:38.284Z,4.60
2017-11-06T06:33:12.991Z,4.68
2017-11-06T06:33:47.689Z,4.68
2017-11-06T06:34:22.381Z,4.45
2017-11-06T06:34:57.116Z,4.90
2017-11-06T06:35:31.811Z,4.95
2017-11-06T06:36:06.533Z,4.50
2017-11-06T06:36:41.259Z,4.25
2017-11-06T06:37:15.995Z,4.30
2017-11-06T06:37:50.740Z,4.50
2017-11-06T06:38:25.291Z,4.75
2017-11-06T06:39:00.028Z,4.05
2017-11-06T06:39:34.728Z,4.18
2017-11-06T06:40:09.443Z,4.03
2017-11-06T06:40:44.154Z,5.07
2017-11-06T06:41:19.209Z,3.33
2017-11-06T06:41:53.919Z,5.15
2017-11-06T06:42:28.636Z,4.15
2017-11-06T06:43:03.340Z,4.47
2017-11-06T06:43:38.044Z,4.30
2017-11-06T06:44:12.744Z,4.50
2017-11-06T06:44:47.451Z,4.00
2017-11-06T06:45:22.138Z,3.65
2017-11-06T06:45:56.852Z,4.10
2017-11-06T06:46:31.794Z,4.35
2017-11-06T06:47:06.511Z,4.28
2017-11-06T06:47:41.223Z,4.00
2017-11-06T06:48:15.737Z,4.05
2017-11-06T06:48:50.431Z,3.95
2017-11-06T06:49:25.899Z,3.95
2017-11-06T06:50:00.632Z,5.22
2017-11-06T06:50:35.000Z,4.47
2017-11-06T06:51:09.729Z,3.90
2017-11-06T06:51:44.602Z,4.70
2017-11-06T06:52:19.330Z,4.18
2017-11-06T06:52:54.030Z,4.40
2017-11-06T06:53:28.743Z,4.80
2017-11-06T06:54:03.458Z,4.80
2017-11-06T06:54:38.175Z,4.80
2017-11-06T06:55:12.886Z,3.83
2017-11-06T06:55:47.409Z,4.35
2017-11-06T06:56:22.121Z,4.35
2017-11-06T06:56:57.184Z,4.80
2017-11-06T06:57:31.900Z,4.43
2017-11-06T06:58:06.257Z,4.62
2017-11-06T06:58:41.004Z,3.78
2017-11-06T06:59:15.824Z,4.75
2017-11-06T06:59:50.649Z,4.65
2017-11-06T07:00:25.386Z,3.65
2017-11-06T07:00:59.799Z,3.97
2017-11-06T07:01:34.164Z,4.55
2017-11-06T07:02:08.824Z,4.10
2017-11-06T07:02:43.529Z,3.87
2017-11-06T07:03:18.236Z,4.68
2017-11-06T07:03:52.604Z,4.20
2017-11-06T07:04:27.312Z,4.82
2017-11-06T07:05:02.024Z,4.45
2017-11-06T07:05:36.392Z,4.40
2017-11-06T07:06:10.779Z,4.93
2017-11-06T07:06:45.487Z,4.70
2017-11-06T07:07:20.262Z,5.43
2017-11-06T07:07:55.012Z,5.28
2017-11-06T07:08:29.719Z,5.15
2017-11-06T07:09:03.894Z,5.90
2017-11-06T07:09:38.256Z,5.45
2017-11-06T07:10:12.632Z,5.80
2017-11-06T07:10:46.985Z,5.32
2017-11-06T07:11:21.361Z,5.40
2017-11-06T07:11:56.064Z,5.65
2017-11-06T07:12:31.131Z,5.35
2017-11-06T07:13:05.856Z,5.10
2017-11-06T07:13:40.628Z,5.45
2017-11-06T07:14:15.006Z,5.75
2017-11-06T07:14:49.748Z,5.50
2017-11-06T07:15:24.492Z,6.78
2017-11-06T07:15:58.881Z,5.10
2017-11-06T07:16:33.247Z,5.80
2017-11-06T07:17:07.969Z,6.43
2017-11-06T07:17:43.556Z,5.30
2017-11-06T07:18:17.912Z,5.90
2017-11-06T07:18:52.628Z,6.87
2017-11-06T07:19:27.341Z,5.60
2017-11-06T07:20:02.068Z,6.35
2017-11-06T07:20:36.444Z,5.97
2017-11-06T07:21:11.150Z,6.20
2017-11-06T07:21:45.862Z,6.72
2017-11-06T07:22:20.580Z,6.65
2017-11-06T07:22:55.334Z,6.30
2017-11-06T07:23:30.053Z,5.62
2017-11-06T07:24:04.767Z,5.70
2017-11-06T07:24:39.512Z,6.65
2017-11-06T07:25:14.226Z,6.90
2017-11-06T07:25:48.925Z,6.95
2017-11-06T07:26:23.666Z,6.68
2017-11-06T07:26:58.395Z,6.00
2017-11-06T07:27:33.100Z,6.12
2017-11-06T07:28:08.158Z,6.20
2017-11-06T07:28:42.888Z,6.65
2017-11-06T07:29:17.608Z,5.95
2017-11-06T07:29:52.330Z,7.15
2017-11-06T07:30:27.044Z,6.10
2017-11-06T07:31:01.772Z,5.65
2017-11-06T07:31:36.506Z,5.65
2017-11-06T07:32:11.217Z,5.57
2017-11-06T07:32:45.935Z,5.47
2017-11-06T07:33:21.012Z,6.53
2017-11-06T07:33:55.791Z,5.95
2017-11-06T07:34:30.507Z,5.30
2017-11-06T07:35:05.217Z,5.40
2017-11-06T07:35:39.917Z,5.25
2017-11-06T07:36:14.663Z,6.28
2017-11-06T07:36:49.374Z,5.82
2017-11-06T07:37:24.084Z,6.00
2017-11-06T07:37:58.836Z,5.68
2017-11-06T07:38:33.560Z,6.12
2017-11-06T07:39:08.077Z,6.22
2017-11-06T07:39:42.874Z,6.18
2017-11-06T07:40:17.719Z,6.53
2017-11-06T07:40:52.440Z,5.93
2017-11-06T07:41:27.500Z,6.40
2017-11-06T07:42:02.312Z,6.12
2017-11-06T07:42:37.114Z,6.03
2017-11-06T07:43:12.772Z,6.30
2017-11-06T07:43:47.917Z,6.90
2017-11-06T07:44:22.681Z,6.85
2017-11-06T07:44:57.410Z,6.40
2017-11-06T07:45:32.140Z,6.35
2017-11-06T07:46:06.860Z,7.20
2017-11-06T07:46:41.564Z,6.95
2017-11-06T07:47:16.313Z,6.87
2017-11-06T07:47:51.028Z,6.03
2017-11-06T07:48:25.786Z,6.12
2017-11-06T07:49:00.726Z,6.60
2017-11-06T07:49:35.450Z,6.20
2017-11-06T07:50:10.194Z,6.72
2017-11-06T07:50:45.178Z,6.70
2017-11-06T07:51:19.924Z,7.10
2017-11-06T07:51:54.627Z,6.30
2017-11-06T07:52:29.091Z,6.72
2017-11-06T07:53:03.908Z,6.95
2017-11-06T07:53:38.616Z,7.40
2017-11-06T07:54:13.373Z,7.12
2017-11-06T07:54:48.148Z,7.37
2017-11-06T07:55:22.877Z,5.75
2017-11-06T07:55:57.603Z,7.10
2017-11-06T07:56:32.340Z,7.05
2017-11-06T07:57:07.117Z,7.05
2017-11-06T07:57:41.835Z,6.72
2017-11-06T07:58:16.538Z,7.20
2017-11-06T07:58:51.258Z,7.68
2017-11-06T07:59:26.119Z,6.93
2017-11-06T08:00:00.864Z,7.68
2017-11-06T08:00:35.236Z,7.40
2017-11-06T08:01:09.947Z,7.18
2017-11-06T08:01:44.675Z,7.47
2017-11-06T08:02:19.375Z,6.62
2017-11-06T08:02:54.075Z,6.53
2017-11-06T08:03:28.788Z,7.37
2017-11-06T08:04:03.520Z,6.25
2017-11-06T08:04:38.261Z,7.03
2017-11-06T08:05:12.967Z,7.30
2017-11-06T08:05:47.681Z,7.95
2017-11-06T08:06:22.406Z,6.40
2017-11-06T08:06:57.166Z,7.15
2017-11-06T08:07:31.903Z,6.78
2017-11-06T08:08:06.872Z,7.05
2017-11-06T08:08:41.581Z,7.45
2017-11-06T08:09:16.342Z,7.40
2017-11-06T08:09:51.346Z,7.18
2017-11-06T08:10:26.073Z,6.75
2017-11-06T08:11:00.941Z,7.60
2017-11-06T08:11:35.680Z,7.37
2017-11-06T08:12:10.397Z,7.00
2017-11-06T08:12:45.096Z,7.80
2017-11-06T08:13:19.870Z,8.07
2017-11-06T08:13:54.579Z,7.50
2017-11-06T08:14:29.309Z,7.00
2017-11-06T08:15:04.359Z,7.40
2017-11-06T08:15:39.065Z,6.97
2017-11-06T08:16:13.788Z,7.75
2017-11-06T08:16:48.529Z,6.90
2017-11-06T08:17:23.692Z,6.80
2017-11-06T08:17:58.403Z,7.25
2017-11-06T08:18:33.163Z,7.55
2017-11-06T08:19:07.885Z,7.37
2017-11-06T08:19:42.597Z,8.05
2017-11-06T08:20:17.146Z,7.80
2017-11-06T08:20:51.845Z,7.35
2017-11-06T08:21:26.550Z,7.18
2017-11-06T08:22:01.264Z,7.32
2017-11-06T08:22:35.797Z,7.35